createdAt,value
2017-04-16T00:01:07.267Z,30.88
2017-04-16T00:02:16.019Z,30.98
2017-04-16T00:03:25.372Z,30.4
2017-04-16T00:04:35.066Z,31.18
2017-04-16T00:05:43.833Z,30.4
2017-04-16T00:06:52.896Z,30.88
2017-04-16T00:08:02.264Z,30.4
2017-04-16T00:09:12.317Z,31.08
2017-04-16T00:10:21.124Z,30.5
2017-04-16T00:11:30.409Z,30.98
2017-04-16T00:12:39.186Z,30.4
2017-04-16T00:13:48.580Z,31.08
2017-04-16T00:14:57.355Z,30.4
2017-04-16T00:16:06.422Z,30.4
2017-04-16T00:17:15.497Z,30.4
2017-04-16T00:18:24.268Z,30.98
2017-04-16T00:19:33.046Z,30.4
2017-04-16T00:20:42.398Z,30.88
2017-04-16T00:21:51.136Z,30.4
2017-04-16T00:23:00.214Z,30.79
2017-04-16T00:24:09.301Z,30.4
2017-04-16T00:25:18.376Z,30.4
2017-04-16T00:26:27.435Z,30.79
2017-04-16T00:27:36.167Z,30.5
2017-04-16T00:28:45.561Z,30.88
2017-04-16T00:29:54.347Z,30.98
2017-04-16T00:31:03.426Z,30.79
2017-04-16T00:32:13.109Z,30.4
2017-04-16T00:33:21.867Z,30.88
2017-04-16T00:34:30.949Z,30.88
2017-04-16T00:35:40.028Z,30.31
2017-04-16T00:36:49.730Z,30.88
2017-04-16T00:37:58.517Z,30.5
2017-04-16T00:39:07.597Z,30.4
2017-04-16T00:40:16.987Z,30.6
2017-04-16T00:41:26.046Z,30.79
2017-04-16T00:42:35.075Z,30.69
2017-04-16T00:43:44.723Z,30.5
2017-04-16T00:44:53.800Z,30.79
2017-04-16T00:46:03.218Z,30.79
2017-04-16T00:47:12.248Z,30.69
2017-04-16T00:48:21.606Z,30.79
2017-04-16T00:49:30.755Z,30.79
2017-04-16T00:50:40.413Z,30.79
2017-04-16T00:51:49.795Z,30.79
2017-04-16T00:52:58.980Z,30.79
2017-04-16T00:54:08.365Z,30.79
2017-04-16T00:55:17.758Z,30.6
2017-04-16T00:56:26.857Z,30.79
2017-04-16T00:57:35.931Z,30.79
2017-04-16T00:58:45.323Z,30.69
2017-04-16T00:59:55.319Z,30.79
2017-04-16T01:01:04.677Z,30.77
2017-04-16T01:02:13.705Z,30.69
2017-04-16T01:03:22.787Z,30.87
2017-04-16T01:04:31.873Z,30.77
2017-04-16T01:05:40.643Z,30.79
2017-04-16T01:06:49.732Z,30.69
2017-04-16T01:07:58.503Z,30.77
2017-04-16T01:09:07.281Z,30.77
2017-04-16T01:10:16.963Z,30.87
2017-04-16T01:11:26.032Z,30.79
2017-04-16T01:12:34.765Z,30.68
2017-04-16T01:13:44.479Z,30.79
2017-04-16T01:14:53.252Z,30.77
2017-04-16T01:16:02.225Z,30.79
2017-04-16T01:17:11.649Z,30.88
2017-04-16T01:18:21.035Z,30.77
2017-04-16T01:19:29.785Z,30.6
2017-04-16T01:20:38.824Z,30.68
2017-04-16T01:21:47.606Z,30.77
2017-04-16T01:22:56.978Z,30.87
2017-04-16T01:24:06.074Z,30.68
2017-04-16T01:25:15.158Z,30.77
2017-04-16T01:26:24.852Z,30.87
2017-04-16T01:27:33.624Z,30.68
2017-04-16T01:28:43.320Z,30.58
2017-04-16T01:29:52.393Z,30.58
2017-04-16T01:31:01.774Z,30.58
2017-04-16T01:32:11.154Z,30.49
2017-04-16T01:33:20.812Z,30.87
2017-04-16T01:34:30.155Z,30.77
2017-04-16T01:35:39.381Z,30.58
2017-04-16T01:36:49.376Z,30.77
2017-04-16T01:37:58.788Z,30.77
2017-04-16T01:39:08.744Z,30.87
2017-04-16T01:40:17.823Z,30.68
2017-04-16T01:41:26.600Z,30.68
2017-04-16T01:42:35.384Z,30.58
2017-04-16T01:43:44.465Z,30.77
2017-04-16T01:44:54.155Z,30.87
2017-04-16T01:46:03.529Z,30.87
2017-04-16T01:47:12.884Z,30.77
2017-04-16T01:48:21.964Z,30.77
2017-04-16T01:49:31.041Z,30.97
2017-04-16T01:50:40.689Z,30.97
2017-04-16T01:51:49.420Z,30.58
2017-04-16T01:52:58.199Z,30.77
2017-04-16T01:54:07.587Z,30.68
2017-04-16T01:55:16.969Z,30.87
2017-04-16T01:56:26.028Z,30.68
2017-04-16T01:57:34.749Z,30.58
2017-04-16T01:58:44.137Z,30.58
2017-04-16T01:59:54.136Z,30.87
2017-04-16T02:01:02.915Z,30.77
2017-04-16T02:02:12.311Z,30.58
2017-04-16T02:03:21.086Z,30.87
2017-04-16T02:04:30.168Z,30.77
2017-04-16T02:05:39.241Z,30.77
2017-04-16T02:06:48.319Z,30.87
2017-04-16T02:07:57.096Z,30.97
2017-04-16T02:09:06.486Z,30.77
2017-04-16T02:10:15.235Z,30.77
2017-04-16T02:11:24.246Z,30.77
2017-04-16T02:12:33.284Z,30.87
2017-04-16T02:13:42.058Z,30.97
2017-04-16T02:14:51.127Z,30.77
2017-04-16T02:16:00.520Z,30.77
2017-04-16T02:17:09.717Z,30.77
2017-04-16T02:18:18.539Z,30.97
2017-04-16T02:19:28.033Z,31.06
2017-04-16T02:20:37.204Z,30.77
2017-04-16T02:21:46.170Z,31.06
2017-04-16T02:22:54.953Z,30.87
2017-04-16T02:24:04.218Z,30.97
2017-04-16T02:25:12.956Z,30.97
2017-04-16T02:26:22.642Z,30.97
2017-04-16T02:27:31.706Z,30.97
2017-04-16T02:28:41.084Z,30.68
2017-04-16T02:29:50.372Z,30.77
2017-04-16T02:30:59.448Z,30.87
2017-04-16T02:32:08.811Z,30.77
2017-04-16T02:33:17.540Z,30.87
2017-04-16T02:34:26.305Z,30.87
2017-04-16T02:35:35.700Z,30.77
2017-04-16T02:36:44.466Z,30.97
2017-04-16T02:37:53.214Z,30.77
2017-04-16T02:39:02.595Z,30.97
2017-04-16T02:40:12.428Z,30.87
2017-04-16T02:41:21.501Z,30.77
2017-04-16T02:42:30.285Z,30.68
2017-04-16T02:43:39.659Z,30.68
2017-04-16T02:44:49.013Z,30.77
2017-04-16T02:45:58.044Z,30.97
2017-04-16T02:47:06.811Z,31.06
2017-04-16T02:48:15.893Z,30.87
2017-04-16T02:49:24.978Z,30.68
2017-04-16T02:50:34.668Z,30.87
2017-04-16T02:51:43.721Z,30.58
2017-04-16T02:52:52.741Z,30.77
2017-04-16T02:54:02.378Z,30.97
2017-04-16T02:55:11.459Z,30.97
2017-04-16T02:56:20.194Z,30.97
2017-04-16T02:57:29.220Z,30.87
2017-04-16T02:58:38.550Z,30.87
2017-04-16T02:59:48.220Z,30.68
2017-04-16T03:00:56.993Z,30.58
2017-04-16T03:02:06.059Z,30.77
2017-04-16T03:03:14.806Z,30.68
2017-04-16T03:04:23.868Z,30.87
2017-04-16T03:05:33.220Z,30.87
2017-04-16T03:06:42.239Z,30.87
2017-04-16T03:07:51.206Z,30.77
2017-04-16T03:09:00.586Z,30.77
2017-04-16T03:10:09.638Z,30.87
2017-04-16T03:11:18.380Z,30.77
2017-04-16T03:12:27.374Z,30.58
2017-04-16T03:13:36.886Z,30.68
2017-04-16T03:14:46.561Z,30.68
2017-04-16T03:15:56.225Z,30.77
2017-04-16T03:17:04.983Z,30.87
2017-04-16T03:18:14.356Z,30.87
2017-04-16T03:19:23.092Z,30.58
2017-04-16T03:20:32.462Z,30.87
2017-04-16T03:21:41.201Z,30.87
2017-04-16T03:22:49.933Z,30.68
2017-04-16T03:23:59.773Z,30.97
2017-04-16T03:25:08.495Z,30.68
2017-04-16T03:26:17.254Z,30.97
2017-04-16T03:27:26.019Z,30.58
2017-04-16T03:28:35.380Z,30.77
2017-04-16T03:29:44.771Z,30.68
2017-04-16T03:30:54.145Z,30.77
2017-04-16T03:32:02.902Z,30.87
2017-04-16T03:33:11.981Z,30.77
2017-04-16T03:34:21.856Z,30.97
2017-04-16T03:35:30.622Z,30.87
2017-04-16T03:36:39.693Z,30.95
2017-04-16T03:37:48.759Z,30.97
2017-04-16T03:38:58.110Z,30.85
2017-04-16T03:40:07.133Z,30.49
2017-04-16T03:41:16.824Z,30.77
2017-04-16T03:42:25.580Z,30.87
2017-04-16T03:43:34.651Z,30.77
2017-04-16T03:44:44.004Z,30.68
2017-04-16T03:45:52.713Z,30.58
2017-04-16T03:47:01.478Z,30.77
2017-04-16T03:48:10.695Z,30.77
2017-04-16T03:49:19.450Z,30.77
2017-04-16T03:50:28.524Z,30.58
2017-04-16T03:51:37.282Z,30.87
2017-04-16T03:52:46.343Z,30.39
2017-04-16T03:53:56.330Z,30.87
2017-04-16T03:55:05.082Z,30.77
2017-04-16T03:56:14.099Z,30.39
2017-04-16T03:57:23.475Z,30.39
2017-04-16T03:58:32.250Z,30.29
2017-04-16T03:59:42.240Z,30.97
2017-04-16T04:00:51.633Z,31.06
2017-04-16T04:02:00.462Z,30.49
2017-04-16T04:03:09.426Z,30.39
2017-04-16T04:04:19.411Z,31.16
2017-04-16T04:05:28.774Z,30.39
2017-04-16T04:06:37.575Z,30.58
2017-04-16T04:07:46.652Z,31.06
2017-04-16T04:08:56.291Z,30.49
2017-04-16T04:10:05.054Z,31.06
2017-04-16T04:11:14.120Z,30.49
2017-04-16T04:12:22.904Z,30.49
2017-04-16T04:13:31.640Z,30.97
2017-04-16T04:14:41.544Z,30.58
2017-04-16T04:15:50.576Z,30.49
2017-04-16T04:17:00.137Z,30.58
2017-04-16T04:18:09.497Z,30.58
2017-04-16T04:19:19.178Z,30.68
2017-04-16T04:20:28.247Z,30.68
2017-04-16T04:21:37.316Z,30.49
2017-04-16T04:22:46.390Z,30.58
2017-04-16T04:23:56.052Z,30.58
2017-04-16T04:25:05.121Z,30.58
2017-04-16T04:26:13.855Z,30.68
2017-04-16T04:27:22.604Z,30.69
2017-04-16T04:28:31.639Z,30.68
2017-04-16T04:29:40.689Z,30.58
2017-04-16T04:30:49.717Z,30.49
2017-04-16T04:31:58.482Z,30.29
2017-04-16T04:33:07.540Z,30.49
2017-04-16T04:34:16.913Z,30.29
2017-04-16T04:35:25.976Z,30.39
2017-04-16T04:36:35.354Z,30.49
2017-04-16T04:37:44.767Z,30.4
2017-04-16T04:38:54.139Z,30.39
2017-04-16T04:40:02.863Z,30.6
2017-04-16T04:41:11.589Z,30.39
2017-04-16T04:42:20.986Z,30.4
2017-04-16T04:43:30.613Z,30.6
2017-04-16T04:44:39.691Z,30.31
2017-04-16T04:45:48.756Z,30.21
2017-04-16T04:46:57.815Z,30.21
2017-04-16T04:48:07.200Z,30.31
2017-04-16T04:49:15.970Z,30.31
2017-04-16T04:50:25.030Z,30.21
2017-04-16T04:51:34.407Z,30.21
2017-04-16T04:52:43.473Z,30.21
2017-04-16T04:53:52.537Z,30.11
2017-04-16T04:55:01.264Z,30.11
2017-04-16T04:56:10.295Z,30.11
2017-04-16T04:57:19.061Z,30.4
2017-04-16T04:58:28.433Z,30.31
2017-04-16T04:59:37.673Z,30.11
2017-04-16T05:00:46.704Z,29.93
2017-04-16T05:01:55.660Z,30.21
2017-04-16T05:03:05.040Z,29.73
2017-04-16T05:04:14.426Z,29.73
2017-04-16T05:05:23.567Z,29.83
2017-04-16T05:06:32.332Z,29.83
2017-04-16T05:07:41.948Z,30.21
2017-04-16T05:08:50.978Z,29.83
2017-04-16T05:10:00.355Z,29.93
2017-04-16T05:11:10.035Z,29.93
2017-04-16T05:12:19.108Z,29.93
2017-04-16T05:13:29.086Z,30.02
2017-04-16T05:14:38.157Z,30.02
2017-04-16T05:15:47.827Z,30.11
2017-04-16T05:16:56.591Z,29.93
2017-04-16T05:18:05.355Z,30.04
2017-04-16T05:19:14.420Z,29.93
2017-04-16T05:20:24.421Z,29.44
2017-04-16T05:21:33.160Z,29.44
2017-04-16T05:22:41.954Z,30.13
2017-04-16T05:23:51.621Z,30.11
2017-04-16T05:25:01.022Z,29.94
2017-04-16T05:26:09.775Z,30.02
2017-04-16T05:27:19.158Z,30.02
2017-04-16T05:28:28.530Z,30.11
2017-04-16T05:29:37.593Z,29.83
2017-04-16T05:30:46.650Z,29.74
2017-04-16T05:31:55.403Z,29.94
2017-04-16T05:33:04.445Z,29.84
2017-04-16T05:34:13.776Z,29.84
2017-04-16T05:35:23.109Z,29.65
2017-04-16T05:36:31.865Z,29.74
2017-04-16T05:37:40.950Z,29.65
2017-04-16T05:38:50.612Z,29.74
2017-04-16T05:39:59.647Z,29.46
2017-04-16T05:41:08.717Z,29.84
2017-04-16T05:42:17.448Z,29.84
2017-04-16T05:43:26.232Z,29.46
2017-04-16T05:44:35.908Z,29.07
2017-04-16T05:45:45.242Z,28.97
2017-04-16T05:46:53.969Z,29.74
2017-04-16T05:48:03.654Z,29.36
2017-04-16T05:49:12.727Z,29.55
2017-04-16T05:50:21.484Z,29.27
2017-04-16T05:51:30.557Z,29.55
2017-04-16T05:52:39.260Z,28.97
2017-04-16T05:53:48.593Z,29.07
2017-04-16T05:54:57.966Z,29.55
2017-04-16T05:56:07.351Z,29.07
2017-04-16T05:57:16.216Z,28.69
2017-04-16T05:58:25.764Z,28.69
2017-04-16T05:59:35.002Z,28.78
2017-04-16T06:00:44.367Z,29.28
2017-04-16T06:01:53.379Z,28.89
2017-04-16T06:03:02.587Z,28.8
2017-04-16T06:04:12.161Z,29.18
2017-04-16T06:05:21.225Z,29.28
2017-04-16T06:06:29.989Z,29.28
2017-04-16T06:07:39.423Z,29.28
2017-04-16T06:08:48.493Z,28.89
2017-04-16T06:09:57.571Z,29.28
2017-04-16T06:11:07.258Z,28.7
2017-04-16T06:12:16.117Z,29.08
2017-04-16T06:13:24.880Z,28.8
2017-04-16T06:14:33.622Z,28.99
2017-04-16T06:15:42.639Z,28.99
2017-04-16T06:16:51.702Z,28.51
2017-04-16T06:18:00.449Z,29.08
2017-04-16T06:19:10.081Z,28.61
2017-04-16T06:20:19.048Z,28.61
2017-04-16T06:21:27.813Z,28.7
2017-04-16T06:22:36.573Z,28.8
2017-04-16T06:23:46.224Z,29.18
2017-04-16T06:24:55.228Z,28.99
2017-04-16T06:26:04.312Z,28.8
2017-04-16T06:27:13.383Z,28.8
2017-04-16T06:28:22.769Z,28.61
2017-04-16T06:29:32.145Z,28.61
2017-04-16T06:30:41.209Z,28.99
2017-04-16T06:31:50.241Z,28.7
2017-04-16T06:32:59.569Z,28.99
2017-04-16T06:34:08.643Z,28.7
2017-04-16T06:35:17.692Z,28.8
2017-04-16T06:36:26.415Z,28.99
2017-04-16T06:37:35.182Z,28.99
2017-04-16T06:38:44.535Z,28.89
2017-04-16T06:39:53.878Z,28.8
2017-04-16T06:41:02.953Z,28.99
2017-04-16T06:42:11.728Z,29.08
2017-04-16T06:43:20.795Z,28.89
2017-04-16T06:44:29.865Z,28.89
2017-04-16T06:45:38.623Z,28.61
2017-04-16T06:46:48.008Z,28.8
2017-04-16T06:47:56.780Z,28.51
2017-04-16T06:49:06.457Z,28.99
2017-04-16T06:50:15.837Z,28.61
2017-04-16T06:51:24.916Z,28.7
2017-04-16T06:52:33.645Z,28.7
2017-04-16T06:53:42.984Z,28.7
2017-04-16T06:54:52.371Z,28.8
2017-04-16T06:56:01.730Z,28.51
2017-04-16T06:57:10.755Z,28.61
2017-04-16T06:58:20.098Z,28.7
2017-04-16T06:59:29.432Z,28.51
2017-04-16T07:00:38.805Z,28.61
2017-04-16T07:01:47.880Z,28.41
2017-04-16T07:02:56.610Z,28.51
2017-04-16T07:04:05.650Z,28.41
2017-04-16T07:05:15.696Z,28.61
2017-04-16T07:06:24.766Z,28.51
2017-04-16T07:07:33.810Z,28.7
2017-04-16T07:08:43.146Z,28.51
2017-04-16T07:09:52.515Z,28.61
2017-04-16T07:11:01.574Z,28.41
2017-04-16T07:12:10.443Z,28.62
2017-04-16T07:13:19.210Z,28.31
2017-04-16T07:14:28.311Z,28.7
2017-04-16T07:15:37.396Z,28.31
2017-04-16T07:16:46.143Z,28.51
2017-04-16T07:17:55.788Z,28.31
2017-04-16T07:19:05.467Z,28.41
2017-04-16T07:20:14.529Z,28.41
2017-04-16T07:21:23.296Z,28.51
2017-04-16T07:22:32.365Z,28.22
2017-04-16T07:23:41.576Z,28.51
2017-04-16T07:24:50.960Z,28.23
2017-04-16T07:26:00.110Z,28.42
2017-04-16T07:27:09.314Z,28.52
2017-04-16T07:28:18.850Z,28.62
2017-04-16T07:29:27.957Z,28.62
2017-04-16T07:30:37.074Z,28.42
2017-04-16T07:31:46.730Z,28.33
2017-04-16T07:32:56.093Z,28.42
2017-04-16T07:34:05.761Z,28.33
2017-04-16T07:35:14.822Z,28.23
2017-04-16T07:36:23.544Z,28.23
2017-04-16T07:37:32.307Z,28.33
2017-04-16T07:38:41.976Z,28.23
2017-04-16T07:39:51.354Z,28.42
2017-04-16T07:41:01.027Z,28.33
2017-04-16T07:42:09.789Z,28.33
2017-04-16T07:43:19.440Z,28.23
2017-04-16T07:44:28.468Z,28.33
2017-04-16T07:45:37.540Z,28.42
2017-04-16T07:46:46.319Z,28.23
2017-04-16T07:47:55.391Z,28.62
2017-04-16T07:49:04.434Z,28.42
2017-04-16T07:50:13.448Z,28.14
2017-04-16T07:51:22.215Z,28.42
2017-04-16T07:52:31.293Z,28.14
2017-04-16T07:53:40.372Z,28.23
2017-04-16T07:54:49.759Z,27.94
2017-04-16T07:55:59.128Z,28.42
2017-04-16T07:57:08.157Z,28.04
2017-04-16T07:58:17.187Z,28.14
2017-04-16T07:59:26.563Z,27.94
2017-04-16T08:00:36.130Z,27.66
2017-04-16T08:01:44.899Z,27.67
2017-04-16T08:02:53.666Z,27.67
2017-04-16T08:04:03.046Z,27.67
2017-04-16T08:05:12.109Z,27.76
2017-04-16T08:06:20.851Z,27.86
2017-04-16T08:07:29.617Z,27.67
2017-04-16T08:08:38.999Z,27.67
2017-04-16T08:09:48.361Z,27.57
2017-04-16T08:10:57.326Z,27.48
2017-04-16T08:12:06.069Z,27.38
2017-04-16T08:13:15.093Z,27.38
2017-04-16T08:14:24.474Z,27.38
2017-04-16T08:15:33.541Z,27.28
2017-04-16T08:16:42.278Z,27.29
2017-04-16T08:17:51.306Z,27.11
2017-04-16T08:19:00.982Z,26.91
2017-04-16T08:20:10.637Z,26.91
2017-04-16T08:21:19.355Z,27.11
2017-04-16T08:22:28.119Z,26.91
2017-04-16T08:23:36.888Z,26.81
2017-04-16T08:24:45.649Z,26.91
2017-04-16T08:25:55.029Z,27.11
2017-04-16T08:27:04.107Z,26.62
2017-04-16T08:28:13.179Z,26.81
2017-04-16T08:29:22.550Z,26.62
2017-04-16T08:30:31.637Z,26.53
2017-04-16T08:31:40.704Z,26.62
2017-04-16T08:32:49.463Z,26.54
2017-04-16T08:33:58.541Z,26.72
2017-04-16T08:35:07.320Z,26.53
2017-04-16T08:36:16.188Z,26.62
2017-04-16T08:37:24.967Z,26.73
2017-04-16T08:38:33.739Z,26.54
2017-04-16T08:39:42.802Z,26.64
2017-04-16T08:40:52.485Z,26.64
2017-04-16T08:42:02.037Z,26.82
2017-04-16T08:43:11.040Z,26.82
2017-04-16T08:44:19.738Z,26.73
2017-04-16T08:45:28.765Z,26.82
2017-04-16T08:46:37.827Z,26.34
2017-04-16T08:47:46.590Z,26.64
2017-04-16T08:48:55.352Z,26.73
2017-04-16T08:50:04.764Z,26.82
2017-04-16T08:51:14.143Z,26.92
2017-04-16T08:52:22.910Z,26.82
2017-04-16T08:53:31.946Z,26.82
2017-04-16T08:54:41.617Z,26.92
2017-04-16T08:55:51.324Z,26.73
2017-04-16T08:57:00.428Z,26.73
2017-04-16T08:58:09.505Z,26.73
2017-04-16T08:59:18.959Z,26.54
2017-04-16T09:00:28.032Z,26.54
2017-04-16T09:01:37.267Z,26.64
2017-04-16T09:02:46.334Z,26.54
2017-04-16T09:03:55.710Z,26.64
2017-04-16T09:05:04.780Z,26.34
2017-04-16T09:06:13.857Z,26.92
2017-04-16T09:07:23.215Z,26.82
2017-04-16T09:08:32.290Z,26.82
2017-04-16T09:09:41.977Z,26.64
2017-04-16T09:10:51.042Z,26.82
2017-04-16T09:11:59.803Z,26.82
2017-04-16T09:13:08.562Z,26.64
2017-04-16T09:14:17.634Z,26.73
2017-04-16T09:15:26.401Z,27.01
2017-04-16T09:16:35.775Z,26.91
2017-04-16T09:17:44.513Z,26.72
2017-04-16T09:18:54.443Z,26.92
2017-04-16T09:20:03.714Z,26.82
2017-04-16T09:21:13.090Z,26.64
2017-04-16T09:22:22.147Z,26.44
2017-04-16T09:23:31.177Z,26.34
2017-04-16T09:24:40.557Z,26.82
2017-04-16T09:25:49.969Z,25.96
2017-04-16T09:26:59.047Z,26.06
2017-04-16T09:28:07.806Z,25.87
2017-04-16T09:29:16.874Z,26.73
2017-04-16T09:30:25.912Z,26.65
2017-04-16T09:31:34.907Z,26.55
2017-04-16T09:32:43.619Z,26.34
2017-04-16T09:33:53.295Z,26.82
2017-04-16T09:35:02.361Z,26.82
2017-04-16T09:36:11.439Z,26.44
2017-04-16T09:37:20.222Z,26.92
2017-04-16T09:38:28.997Z,26.34
2017-04-16T09:39:38.071Z,26.34
2017-04-16T09:40:47.435Z,26.44
2017-04-16T09:41:56.711Z,26.25
2017-04-16T09:43:05.773Z,26.73
2017-04-16T09:44:14.851Z,26.73
2017-04-16T09:45:23.917Z,26.92
2017-04-16T09:46:32.982Z,26.34
2017-04-16T09:47:41.743Z,26.73
2017-04-16T09:48:50.818Z,26.34
2017-04-16T09:49:59.892Z,26.73
2017-04-16T09:51:08.958Z,26.54
2017-04-16T09:52:17.707Z,26.92
2017-04-16T09:53:26.737Z,26.73
2017-04-16T09:54:35.824Z,26.92
2017-04-16T09:55:45.153Z,26.92
2017-04-16T09:56:53.956Z,27.02
2017-04-16T09:58:02.765Z,26.81
2017-04-16T09:59:12.292Z,27.02
2017-04-16T10:00:21.382Z,26.91
2017-04-16T10:01:30.818Z,27.01
2017-04-16T10:02:39.757Z,26.91
2017-04-16T10:03:49.092Z,27.39
2017-04-16T10:04:58.440Z,27.2
2017-04-16T10:06:07.555Z,27.11
2017-04-16T10:07:16.979Z,27.29
2017-04-16T10:08:26.390Z,27.29
2017-04-16T10:09:35.773Z,27.29
2017-04-16T10:10:44.519Z,27.39
2017-04-16T10:11:53.546Z,27.39
2017-04-16T10:13:02.511Z,27.29
2017-04-16T10:14:11.270Z,27.49
2017-04-16T10:15:20.643Z,27.29
2017-04-16T10:16:29.405Z,27.49
2017-04-16T10:17:38.482Z,27.49
2017-04-16T10:18:48.381Z,27.39
2017-04-16T10:19:57.759Z,27.59
2017-04-16T10:21:06.831Z,27.49
2017-04-16T10:22:15.599Z,27.38
2017-04-16T10:23:24.973Z,27.29
2017-04-16T10:24:34.242Z,27.29
2017-04-16T10:25:43.314Z,27.01
2017-04-16T10:26:52.389Z,27.2
2017-04-16T10:28:01.460Z,27.02
2017-04-16T10:29:10.821Z,26.73
2017-04-16T10:30:19.906Z,26.64
2017-04-16T10:31:28.669Z,26.64
2017-04-16T10:32:37.432Z,26.54
2017-04-16T10:33:47.126Z,26.82
2017-04-16T10:34:56.500Z,26.82
2017-04-16T10:36:05.733Z,26.64
2017-04-16T10:37:14.775Z,26.82
2017-04-16T10:38:23.842Z,26.92
2017-04-16T10:39:32.612Z,27.22
2017-04-16T10:40:41.375Z,27.02
2017-04-16T10:41:50.442Z,26.82
2017-04-16T10:42:59.207Z,26.73
2017-04-16T10:44:08.245Z,26.54
2017-04-16T10:45:17.326Z,26.54
2017-04-16T10:46:26.684Z,26.64
2017-04-16T10:47:35.713Z,26.25
2017-04-16T10:48:45.707Z,26.26
2017-04-16T10:49:54.782Z,25.78
2017-04-16T10:51:03.863Z,25.7
2017-04-16T10:52:12.824Z,25.02
2017-04-16T10:53:21.557Z,24.55
2017-04-16T10:54:30.583Z,23.69
2017-04-16T10:55:40.048Z,23.32
2017-04-16T10:56:48.962Z,22.84
2017-04-16T10:57:58.076Z,22.08
2017-04-16T10:59:07.741Z,21.02
2017-04-16T11:00:17.511Z,20.75
2017-04-16T11:01:26.410Z,19.99
2017-04-16T11:02:35.186Z,19.5
2017-04-16T11:03:44.561Z,18.94
2017-04-16T11:04:54.224Z,18.27
2017-04-16T11:06:03.558Z,17.78
2017-04-16T11:07:12.616Z,17.4
2017-04-16T11:08:21.382Z,17.22
2017-04-16T11:09:30.707Z,16.83
2017-04-16T11:10:39.454Z,17.32
2017-04-16T11:11:48.225Z,17.31
2017-04-16T11:12:57.300Z,17.79
2017-04-16T11:14:06.674Z,18.17
2017-04-16T11:15:15.701Z,18.66
2017-04-16T11:16:24.787Z,18.84
2017-04-16T11:17:33.854Z,19.7
2017-04-16T11:18:43.858Z,20.09
2017-04-16T11:19:52.942Z,20.18
2017-04-16T11:21:02.022Z,20.56
2017-04-16T11:22:11.089Z,20.85
2017-04-16T11:23:20.213Z,21.03
2017-04-16T11:24:29.287Z,21.51
2017-04-16T11:25:38.026Z,21.7
2017-04-16T11:26:47.029Z,22.19
2017-04-16T11:27:56.364Z,22.47
2017-04-16T11:29:05.711Z,23.05
2017-04-16T11:30:15.054Z,23.42
2017-04-16T11:31:24.059Z,23.52
2017-04-16T11:32:33.096Z,24.28
2017-04-16T11:33:42.143Z,24.57
2017-04-16T11:34:51.830Z,24.67
2017-04-16T11:36:01.208Z,25.15
2017-04-16T11:37:10.489Z,24.76
2017-04-16T11:38:19.553Z,25.43
2017-04-16T11:39:28.817Z,25.52
2017-04-16T11:40:37.576Z,25.9
2017-04-16T11:41:46.642Z,25.9
2017-04-16T11:42:55.715Z,25.51
2017-04-16T11:44:04.770Z,25.9
2017-04-16T11:45:13.823Z,25.89
2017-04-16T11:46:22.584Z,26.56
2017-04-16T11:47:31.957Z,26.37
2017-04-16T11:48:41.638Z,26.76
2017-04-16T11:49:51.034Z,26.95
2017-04-16T11:51:00.577Z,26.76
2017-04-16T11:52:09.319Z,26.84
2017-04-16T11:53:18.622Z,26.84
2017-04-16T11:54:28.322Z,27.03
2017-04-16T11:55:37.219Z,27.03
2017-04-16T11:56:46.104Z,27.23
2017-04-16T11:57:55.139Z,27.23
2017-04-16T11:59:03.945Z,27.33
2017-04-16T12:00:13.011Z,27.4
2017-04-16T12:01:22.894Z,27.5
2017-04-16T12:02:31.932Z,27.5
2017-04-16T12:03:41.010Z,27.5
2017-04-16T12:04:50.084Z,27.6
2017-04-16T12:05:59.155Z,27.98
2017-04-16T12:07:08.830Z,27.8
2017-04-16T12:08:17.606Z,27.7
2017-04-16T12:09:26.682Z,27.7
2017-04-16T12:10:35.753Z,27.98
2017-04-16T12:11:44.486Z,27.8
2017-04-16T12:12:53.221Z,27.98
2017-04-16T12:14:02.296Z,28.18
2017-04-16T12:15:11.976Z,28.18
2017-04-16T12:16:21.027Z,28.08
2017-04-16T12:17:30.354Z,28.45
2017-04-16T12:18:39.434Z,28.08
2017-04-16T12:19:48.510Z,28.37
2017-04-16T12:20:57.881Z,28.08
2017-04-16T12:22:07.260Z,28.28
2017-04-16T12:23:16.503Z,28.08
2017-04-16T12:24:25.889Z,28.07
2017-04-16T12:25:34.932Z,28.18
2017-04-16T12:26:43.658Z,28.26
2017-04-16T12:27:52.696Z,28.26
2017-04-16T12:29:02.011Z,28.36
2017-04-16T12:30:11.321Z,28.26
2017-04-16T12:31:20.654Z,28.26
2017-04-16T12:32:29.910Z,28.94
2017-04-16T12:33:38.949Z,28.64
2017-04-16T12:34:48.060Z,28.45
2017-04-16T12:35:57.119Z,28.55
2017-04-16T12:37:06.199Z,28.45
2017-04-16T12:38:15.579Z,28.64
2017-04-16T12:39:24.960Z,28.64
2017-04-16T12:40:34.028Z,28.55
2017-04-16T12:41:43.081Z,28.74
2017-04-16T12:42:52.106Z,28.74
2017-04-16T12:44:01.762Z,28.74
2017-04-16T12:45:11.702Z,28.45
2017-04-16T12:46:21.067Z,28.74
2017-04-16T12:47:30.123Z,28.64
2017-04-16T12:48:39.168Z,28.55
2017-04-16T12:49:48.519Z,28.45
2017-04-16T12:50:57.850Z,28.45
2017-04-16T12:52:07.097Z,28.36
2017-04-16T12:53:16.149Z,28.64
2017-04-16T12:54:25.340Z,28.45
2017-04-16T12:55:34.728Z,28.45
2017-04-16T12:56:44.189Z,28.76
2017-04-16T12:57:52.942Z,28.66
2017-04-16T12:59:02.322Z,28.47
2017-04-16T13:00:11.702Z,28.47
2017-04-16T13:01:20.464Z,28.66
2017-04-16T13:02:29.226Z,28.56
2017-04-16T13:03:37.996Z,28.66
2017-04-16T13:04:48.143Z,28.66
2017-04-16T13:05:57.173Z,28.56
2017-04-16T13:07:05.932Z,28.28
2017-04-16T13:08:15.302Z,28.47
2017-04-16T13:09:24.957Z,28.37
2017-04-16T13:10:33.964Z,28.37
2017-04-16T13:11:42.999Z,28.37
2017-04-16T13:12:52.385Z,28.47
2017-04-16T13:14:01.771Z,29.05
2017-04-16T13:15:10.827Z,29.14
2017-04-16T13:16:20.161Z,28.94
2017-04-16T13:17:28.934Z,29.22
2017-04-16T13:18:38.007Z,29.13
2017-04-16T13:19:46.750Z,28.45
2017-04-16T13:20:55.484Z,28.94
2017-04-16T13:22:04.250Z,28.94
2017-04-16T13:23:13.357Z,29.22
2017-04-16T13:24:22.423Z,29.32
2017-04-16T13:25:31.243Z,29.03
2017-04-16T13:26:40.313Z,29.13
2017-04-16T13:27:49.076Z,28.74
2017-04-16T13:28:58.152Z,29.13
2017-04-16T13:30:07.193Z,29.42
2017-04-16T13:31:15.917Z,29.22
2017-04-16T13:32:24.664Z,29.52
2017-04-16T13:33:33.689Z,29.42
2017-04-16T13:34:42.771Z,29.32
2017-04-16T13:35:52.037Z,29.52
2017-04-16T13:37:00.785Z,29.52
2017-04-16T13:38:10.130Z,28.74
2017-04-16T13:39:19.808Z,28.74
2017-04-16T13:40:28.550Z,29.32
2017-04-16T13:41:37.315Z,29.03
2017-04-16T13:42:46.378Z,28.74
2017-04-16T13:43:56.063Z,29.22
2017-04-16T13:45:05.131Z,29.52
2017-04-16T13:46:13.858Z,29.71
2017-04-16T13:47:22.931Z,29.22
2017-04-16T13:48:32.014Z,29.32
2017-04-16T13:49:41.629Z,29.42
2017-04-16T13:50:51.316Z,29.22
2017-04-16T13:52:00.698Z,29.71
2017-04-16T13:53:09.433Z,29.31
2017-04-16T13:54:18.236Z,29.8
2017-04-16T13:55:27.335Z,29.6
2017-04-16T13:56:36.243Z,29.79
2017-04-16T13:57:45.802Z,29.71
2017-04-16T13:58:54.956Z,29.32
2017-04-16T14:00:03.720Z,29.69
2017-04-16T14:01:12.787Z,29.79
2017-04-16T14:02:21.880Z,29.89
2017-04-16T14:03:30.645Z,29.8
2017-04-16T14:04:39.697Z,29.79
2017-04-16T14:05:48.419Z,29.5
2017-04-16T14:06:57.470Z,29.71
2017-04-16T14:08:06.486Z,29.8
2017-04-16T14:09:15.561Z,29.13
2017-04-16T14:10:24.638Z,29.9
2017-04-16T14:11:34.015Z,29.03
2017-04-16T14:12:43.694Z,29.52
2017-04-16T14:13:53.676Z,29.42
2017-04-16T14:15:03.329Z,29.42
2017-04-16T14:16:12.050Z,29.42
2017-04-16T14:17:21.131Z,29.42
2017-04-16T14:18:30.713Z,29.32
2017-04-16T14:19:39.778Z,29.22
2017-04-16T14:20:48.860Z,29.79
2017-04-16T14:21:57.591Z,29.5
2017-04-16T14:23:07.218Z,29.79
2017-04-16T14:24:16.230Z,29.6
2017-04-16T14:25:25.877Z,29.5
2017-04-16T14:26:34.650Z,29.89
2017-04-16T14:27:43.391Z,29.31
2017-04-16T14:28:52.725Z,30.08
2017-04-16T14:30:02.104Z,29.6
2017-04-16T14:31:10.866Z,30.18
2017-04-16T14:32:19.936Z,30.27
2017-04-16T14:33:28.991Z,29.98
2017-04-16T14:34:38.030Z,30.27
2017-04-16T14:35:46.754Z,29.89
2017-04-16T14:36:56.122Z,30.27
2017-04-16T14:38:04.886Z,30.08
2017-04-16T14:39:14.251Z,29.6
2017-04-16T14:40:23.296Z,30.18
2017-04-16T14:41:32.302Z,30.08
2017-04-16T14:42:41.327Z,30.08
2017-04-16T14:43:50.604Z,30.08
2017-04-16T14:44:59.373Z,29.69
2017-04-16T14:46:08.138Z,29.98
2017-04-16T14:47:17.209Z,29.98
2017-04-16T14:48:27.161Z,29.69
2017-04-16T14:49:36.798Z,29.89
2017-04-16T14:50:45.871Z,29.31
2017-04-16T14:51:55.498Z,29.69
2017-04-16T14:53:04.792Z,29.5
2017-04-16T14:54:13.622Z,29.5